ウランバートル の空港の天気 - METARとTAF

チンギスハーン国際空港 ( ZMUB / ULN ) - モンゴル ウランバートル
飛行場実況気象(Metar)
観測時間10/20 02:00 ULAT (10/19 18:00 UTC)
風向・風速南南東 8m/s
視程10km以上
天気現象
全天の4割程度の雲 雲底高度 1010m
全天の4割程度の雲 雲底高度 3050m
気温6℃
湿度42%
気圧1016hPa
METARZMUB 191800Z 16008MPS 9999 SCT033 SCT100 06/M06 Q1016 NOSIG RMK QFE654.7 41 NT
過去の天気等 Google飛行場航空写真 Wunderground天気予報

過去48時間のMETAR

飛行場予報(TAF)
発表時間: 10/20 01:25 ULAT (10/19 17:25 UTC)
予報対象時間: 20日2時 ULAT ~ 21日8時 ULAT
風向・風速南南東 7m/s
視程10km以上
全天の4割程度の雲 雲底高度 1010m
全天の4割程度の雲 雲底高度 3050m
20日8時 ULAT ~ 20日10時 ULAT に徐々に
風向・風速不定 2m/s
20日10時 ULAT ~ 20日12時 ULAT に徐々に
風向・風速西南西 5m/s
20日16時 ULAT ~ 20日19時 ULAT に徐々に
風向・風速不定 2m/s
TAF AMD ZMUB 191725Z 1918/2024 16007MPS 9999 SCT033 SCT100 TNM00/1922Z TX09/2007Z
BECMG 2000/2002 VRB02MPS
BECMG 2002/2004 24005MPS
BECMG 2008/2011 VRB02MPS